sensor_id;sensor_type;location;lat;lon;timestamp;P1;durP1;ratioP1;P2;durP2;ratioP2
4466;SDS011;2246;42.664;23.278;2023-03-05T00:00:37;38.03;;;14.75;;
4466;SDS011;2246;42.664;23.278;2023-03-05T00:03:03;35.45;;;15.63;;
4466;SDS011;2246;42.664;23.278;2023-03-05T00:05:29;37.83;;;15.35;;
4466;SDS011;2246;42.664;23.278;2023-03-05T00:07:56;43.67;;;15.95;;
4466;SDS011;2246;42.664;23.278;2023-03-05T00:10:22;30.67;;;15.10;;
4466;SDS011;2246;42.664;23.278;2023-03-05T00:12:48;41.72;;;16.63;;
4466;SDS011;2246;42.664;23.278;2023-03-05T00:15:14;32.35;;;15.48;;
4466;SDS011;2246;42.664;23.278;2023-03-05T00:17:40;28.65;;;13.75;;
4466;SDS011;2246;42.664;23.278;2023-03-05T00:20:07;39.72;;;16.10;;
4466;SDS011;2246;42.664;23.278;2023-03-05T00:22:33;35.85;;;15.27;;
4466;SDS011;2246;42.664;23.278;2023-03-05T00:25:00;37.22;;;15.93;;
4466;SDS011;2246;42.664;23.278;2023-03-05T00:27:26;32.67;;;15.63;;
4466;SDS011;2246;42.664;23.278;2023-03-05T00:29:52;36.72;;;15.80;;
4466;SDS011;2246;42.664;23.278;2023-03-05T00:32:18;32.80;;;13.93;;
4466;SDS011;2246;42.664;23.278;2023-03-05T00:34:44;32.58;;;14.38;;
4466;SDS011;2246;42.664;23.278;2023-03-05T00:37:10;36.30;;;16.23;;
4466;SDS011;2246;42.664;23.278;2023-03-05T00:39:37;39.88;;;16.13;;
4466;SDS011;2246;42.664;23.278;2023-03-05T00:42:03;31.10;;;13.55;;
4466;SDS011;2246;42.664;23.278;2023-03-05T00:47:32;32.08;;;14.90;;
4466;SDS011;2246;42.664;23.278;2023-03-05T00:49:59;32.78;;;15.98;;
4466;SDS011;2246;42.664;23.278;2023-03-05T00:52:25;41.25;;;16.65;;
4466;SDS011;2246;42.664;23.278;2023-03-05T00:54:51;41.05;;;15.75;;
4466;SDS011;2246;42.664;23.278;2023-03-05T00:57:17;43.28;;;14.43;;
4466;SDS011;2246;42.664;23.278;2023-03-05T00:59:44;36.88;;;14.52;;
4466;SDS011;2246;42.664;23.278;2023-03-05T01:02:10;31.58;;;14.50;;
4466;SDS011;2246;42.664;23.278;2023-03-05T01:04:36;28.83;;;13.73;;
4466;SDS011;2246;42.664;23.278;2023-03-05T01:07:02;35.10;;;13.88;;
4466;SDS011;2246;42.664;23.278;2023-03-05T01:09:28;30.35;;;14.05;;
4466;SDS011;2246;42.664;23.278;2023-03-05T01:11:55;32.33;;;15.20;;
4466;SDS011;2246;42.664;23.278;2023-03-05T01:14:21;40.13;;;14.60;;
4466;SDS011;2246;42.664;23.278;2023-03-05T01:16:47;30.55;;;14.80;;
4466;SDS011;2246;42.664;23.278;2023-03-05T01:19:14;34.35;;;14.30;;
4466;SDS011;2246;42.664;23.278;2023-03-05T01:21:41;30.95;;;14.15;;
4466;SDS011;2246;42.664;23.278;2023-03-05T01:24:07;33.50;;;13.98;;
4466;SDS011;2246;42.664;23.278;2023-03-05T01:26:33;33.10;;;14.20;;
4466;SDS011;2246;42.664;23.278;2023-03-05T01:29:00;32.20;;;13.88;;
4466;SDS011;2246;42.664;23.278;2023-03-05T01:31:26;29.08;;;13.60;;
4466;SDS011;2246;42.664;23.278;2023-03-05T01:33:52;30.45;;;12.85;;
4466;SDS011;2246;42.664;23.278;2023-03-05T01:36:20;34.28;;;14.23;;
4466;SDS011;2246;42.664;23.278;2023-03-05T01:38:47;36.80;;;14.25;;
4466;SDS011;2246;42.664;23.278;2023-03-05T01:41:14;36.63;;;13.55;;
4466;SDS011;2246;42.664;23.278;2023-03-05T01:43:40;30.98;;;13.77;;
4466;SDS011;2246;42.664;23.278;2023-03-05T01:46:23;29.98;;;14.10;;
4466;SDS011;2246;42.664;23.278;2023-03-05T01:51:30;30.17;;;13.57;;
4466;SDS011;2246;42.664;23.278;2023-03-05T01:53:57;30.10;;;12.25;;
4466;SDS011;2246;42.664;23.278;2023-03-05T01:56:24;34.35;;;13.80;;
4466;SDS011;2246;42.664;23.278;2023-03-05T01:58:51;28.73;;;13.25;;
4466;SDS011;2246;42.664;23.278;2023-03-05T02:01:18;31.50;;;14.00;;
4466;SDS011;2246;42.664;23.278;2023-03-05T02:03:45;31.50;;;12.90;;
4466;SDS011;2246;42.664;23.278;2023-03-05T02:06:11;27.98;;;12.85;;
4466;SDS011;2246;42.664;23.278;2023-03-05T02:08:38;30.20;;;13.50;;
4466;SDS011;2246;42.664;23.278;2023-03-05T02:11:04;33.22;;;12.80;;
4466;SDS011;2246;42.664;23.278;2023-03-05T02:13:32;29.63;;;14.02;;
4466;SDS011;2246;42.664;23.278;2023-03-05T02:15:59;28.92;;;13.52;;
4466;SDS011;2246;42.664;23.278;2023-03-05T02:18:26;31.50;;;13.20;;
4466;SDS011;2246;42.664;23.278;2023-03-05T02:23:28;26.75;;;12.65;;
4466;SDS011;2246;42.664;23.278;2023-03-05T02:25:54;27.80;;;12.68;;
4466;SDS011;2246;42.664;23.278;2023-03-05T02:30:53;29.58;;;13.50;;
4466;SDS011;2246;42.664;23.278;2023-03-05T02:33:20;33.38;;;13.13;;
4466;SDS011;2246;42.664;23.278;2023-03-05T02:35:46;27.42;;;12.43;;
4466;SDS011;2246;42.664;23.278;2023-03-05T02:38:13;26.20;;;12.93;;
4466;SDS011;2246;42.664;23.278;2023-03-05T02:40:39;29.20;;;13.88;;
4466;SDS011;2246;42.664;23.278;2023-03-05T02:43:07;30.77;;;12.88;;
4466;SDS011;2246;42.664;23.278;2023-03-05T02:45:33;31.40;;;13.90;;
4466;SDS011;2246;42.664;23.278;2023-03-05T02:47:59;32.20;;;14.65;;
4466;SDS011;2246;42.664;23.278;2023-03-05T02:50:26;36.60;;;13.43;;
4466;SDS011;2246;42.664;23.278;2023-03-05T02:52:52;32.72;;;12.95;;
4466;SDS011;2246;42.664;23.278;2023-03-05T02:55:18;33.17;;;13.68;;
4466;SDS011;2246;42.664;23.278;2023-03-05T02:57:44;30.05;;;12.95;;
4466;SDS011;2246;42.664;23.278;2023-03-05T03:00:11;30.30;;;13.63;;
4466;SDS011;2246;42.664;23.278;2023-03-05T03:02:37;33.08;;;14.15;;
4466;SDS011;2246;42.664;23.278;2023-03-05T03:05:03;34.70;;;14.35;;
4466;SDS011;2246;42.664;23.278;2023-03-05T03:07:30;29.88;;;12.68;;
4466;SDS011;2246;42.664;23.278;2023-03-05T03:12:24;33.85;;;13.80;;
4466;SDS011;2246;42.664;23.278;2023-03-05T03:14:50;33.35;;;14.10;;
4466;SDS011;2246;42.664;23.278;2023-03-05T03:17:17;30.75;;;14.07;;
4466;SDS011;2246;42.664;23.278;2023-03-05T03:19:44;33.72;;;13.85;;
4466;SDS011;2246;42.664;23.278;2023-03-05T03:24:39;29.63;;;13.80;;
4466;SDS011;2246;42.664;23.278;2023-03-05T03:27:06;35.50;;;14.88;;
4466;SDS011;2246;42.664;23.278;2023-03-05T03:29:32;34.17;;;14.30;;
4466;SDS011;2246;42.664;23.278;2023-03-05T03:31:58;38.85;;;16.25;;
4466;SDS011;2246;42.664;23.278;2023-03-05T03:34:24;36.95;;;13.75;;
4466;SDS011;2246;42.664;23.278;2023-03-05T03:36:51;40.67;;;15.77;;
4466;SDS011;2246;42.664;23.278;2023-03-05T03:39:17;37.60;;;16.45;;
4466;SDS011;2246;42.664;23.278;2023-03-05T03:41:44;40.42;;;15.82;;
4466;SDS011;2246;42.664;23.278;2023-03-05T03:44:10;42.30;;;15.82;;
4466;SDS011;2246;42.664;23.278;2023-03-05T03:46:37;38.85;;;16.20;;
4466;SDS011;2246;42.664;23.278;2023-03-05T03:49:03;33.60;;;15.80;;
4466;SDS011;2246;42.664;23.278;2023-03-05T03:51:30;37.25;;;16.42;;
4466;SDS011;2246;42.664;23.278;2023-03-05T03:53:56;44.10;;;17.92;;
4466;SDS011;2246;42.664;23.278;2023-03-05T03:56:22;44.63;;;17.55;;
4466;SDS011;2246;42.664;23.278;2023-03-05T03:58:51;42.72;;;17.17;;
4466;SDS011;2246;42.664;23.278;2023-03-05T04:01:18;39.47;;;16.67;;
4466;SDS011;2246;42.664;23.278;2023-03-05T04:03:45;38.30;;;16.73;;
4466;SDS011;2246;42.664;23.278;2023-03-05T04:06:11;39.13;;;18.60;;
4466;SDS011;2246;42.664;23.278;2023-03-05T04:08:38;37.80;;;16.33;;
4466;SDS011;2246;42.664;23.278;2023-03-05T04:11:04;41.05;;;16.30;;
4466;SDS011;2246;42.664;23.278;2023-03-05T04:13:30;45.65;;;17.30;;
4466;SDS011;2246;42.664;23.278;2023-03-05T04:15:56;39.10;;;16.80;;
4466;SDS011;2246;42.664;23.278;2023-03-05T04:18:22;41.72;;;17.60;;
4466;SDS011;2246;42.664;23.278;2023-03-05T04:20:48;43.97;;;17.00;;
4466;SDS011;2246;42.664;23.278;2023-03-05T04:23:14;44.70;;;18.00;;
4466;SDS011;2246;42.664;23.278;2023-03-05T04:25:41;47.90;;;18.13;;
4466;SDS011;2246;42.664;23.278;2023-03-05T04:28:07;44.17;;;17.38;;
4466;SDS011;2246;42.664;23.278;2023-03-05T04:30:33;45.50;;;17.20;;
4466;SDS011;2246;42.664;23.278;2023-03-05T04:32:59;41.33;;;16.95;;
4466;SDS011;2246;42.664;23.278;2023-03-05T04:35:25;44.05;;;18.15;;
4466;SDS011;2246;42.664;23.278;2023-03-05T04:37:51;39.75;;;17.38;;
4466;SDS011;2246;42.664;23.278;2023-03-05T04:40:17;48.22;;;18.33;;
4466;SDS011;2246;42.664;23.278;2023-03-05T04:42:44;48.22;;;19.63;;
4466;SDS011;2246;42.664;23.278;2023-03-05T04:45:10;47.45;;;17.75;;
4466;SDS011;2246;42.664;23.278;2023-03-05T04:47:36;39.30;;;16.75;;
4466;SDS011;2246;42.664;23.278;2023-03-05T04:50:03;38.70;;;18.05;;
4466;SDS011;2246;42.664;23.278;2023-03-05T04:52:29;36.20;;;15.85;;
4466;SDS011;2246;42.664;23.278;2023-03-05T04:54:55;50.70;;;16.75;;
4466;SDS011;2246;42.664;23.278;2023-03-05T04:57:22;38.33;;;16.63;;
4466;SDS011;2246;42.664;23.278;2023-03-05T04:59:48;40.38;;;17.05;;
4466;SDS011;2246;42.664;23.278;2023-03-05T05:02:14;42.78;;;16.70;;
4466;SDS011;2246;42.664;23.278;2023-03-05T05:04:40;41.03;;;16.85;;
4466;SDS011;2246;42.664;23.278;2023-03-05T05:07:09;40.35;;;16.35;;
4466;SDS011;2246;42.664;23.278;2023-03-05T05:09:36;37.35;;;15.50;;
4466;SDS011;2246;42.664;23.278;2023-03-05T05:12:02;45.38;;;16.77;;
4466;SDS011;2246;42.664;23.278;2023-03-05T05:14:29;42.05;;;16.77;;
4466;SDS011;2246;42.664;23.278;2023-03-05T05:16:55;42.72;;;17.08;;
4466;SDS011;2246;42.664;23.278;2023-03-05T05:19:21;47.45;;;16.52;;
4466;SDS011;2246;42.664;23.278;2023-03-05T05:21:47;45.45;;;17.50;;
4466;SDS011;2246;42.664;23.278;2023-03-05T05:24:13;48.70;;;17.52;;
4466;SDS011;2246;42.664;23.278;2023-03-05T05:26:39;38.47;;;16.23;;
4466;SDS011;2246;42.664;23.278;2023-03-05T05:29:05;39.05;;;16.02;;
4466;SDS011;2246;42.664;23.278;2023-03-05T05:31:31;41.53;;;16.20;;
4466;SDS011;2246;42.664;23.278;2023-03-05T05:33:57;41.53;;;16.98;;
4466;SDS011;2246;42.664;23.278;2023-03-05T05:36:24;41.00;;;17.50;;
4466;SDS011;2246;42.664;23.278;2023-03-05T05:38:50;49.33;;;17.10;;
4466;SDS011;2246;42.664;23.278;2023-03-05T05:41:16;37.78;;;15.23;;
4466;SDS011;2246;42.664;23.278;2023-03-05T05:43:42;33.55;;;13.20;;
4466;SDS011;2246;42.664;23.278;2023-03-05T05:46:17;33.78;;;14.80;;
4466;SDS011;2246;42.664;23.278;2023-03-05T05:48:43;36.47;;;16.30;;
4466;SDS011;2246;42.664;23.278;2023-03-05T05:51:13;34.70;;;15.23;;
4466;SDS011;2246;42.664;23.278;2023-03-05T05:53:40;39.85;;;13.93;;
4466;SDS011;2246;42.664;23.278;2023-03-05T05:56:07;30.67;;;12.25;;
4466;SDS011;2246;42.664;23.278;2023-03-05T05:58:34;28.55;;;13.13;;
4466;SDS011;2246;42.664;23.278;2023-03-05T06:01:00;37.65;;;13.45;;
4466;SDS011;2246;42.664;23.278;2023-03-05T06:03:26;38.50;;;14.32;;
4466;SDS011;2246;42.664;23.278;2023-03-05T06:05:52;35.08;;;12.48;;
4466;SDS011;2246;42.664;23.278;2023-03-05T06:08:19;27.88;;;11.57;;
4466;SDS011;2246;42.664;23.278;2023-03-05T06:10:51;31.67;;;12.52;;
4466;SDS011;2246;42.664;23.278;2023-03-05T06:13:17;46.30;;;17.63;;
4466;SDS011;2246;42.664;23.278;2023-03-05T06:15:44;30.88;;;13.10;;
4466;SDS011;2246;42.664;23.278;2023-03-05T06:18:10;33.42;;;13.43;;
4466;SDS011;2246;42.664;23.278;2023-03-05T06:20:36;32.90;;;13.07;;
4466;SDS011;2246;42.664;23.278;2023-03-05T06:23:02;32.28;;;13.52;;
4466;SDS011;2246;42.664;23.278;2023-03-05T06:25:28;31.85;;;12.68;;
4466;SDS011;2246;42.664;23.278;2023-03-05T06:27:54;25.33;;;11.88;;
4466;SDS011;2246;42.664;23.278;2023-03-05T06:30:20;29.55;;;11.27;;
4466;SDS011;2246;42.664;23.278;2023-03-05T06:32:46;27.90;;;11.90;;
4466;SDS011;2246;42.664;23.278;2023-03-05T06:35:13;27.70;;;11.95;;
4466;SDS011;2246;42.664;23.278;2023-03-05T06:37:39;26.10;;;11.30;;
4466;SDS011;2246;42.664;23.278;2023-03-05T06:40:05;28.75;;;11.75;;
4466;SDS011;2246;42.664;23.278;2023-03-05T06:42:32;26.17;;;11.10;;
4466;SDS011;2246;42.664;23.278;2023-03-05T06:44:58;27.60;;;12.33;;
4466;SDS011;2246;42.664;23.278;2023-03-05T06:47:24;29.65;;;12.65;;
4466;SDS011;2246;42.664;23.278;2023-03-05T06:49:50;32.40;;;11.85;;
4466;SDS011;2246;42.664;23.278;2023-03-05T06:52:17;36.42;;;12.65;;
4466;SDS011;2246;42.664;23.278;2023-03-05T06:54:43;35.67;;;11.68;;
4466;SDS011;2246;42.664;23.278;2023-03-05T06:57:09;29.25;;;12.45;;
4466;SDS011;2246;42.664;23.278;2023-03-05T06:59:35;29.23;;;11.80;;
4466;SDS011;2246;42.664;23.278;2023-03-05T07:02:01;29.63;;;12.02;;
4466;SDS011;2246;42.664;23.278;2023-03-05T07:04:27;30.85;;;11.88;;
4466;SDS011;2246;42.664;23.278;2023-03-05T07:06:53;29.58;;;12.80;;
4466;SDS011;2246;42.664;23.278;2023-03-05T07:09:19;29.02;;;13.02;;
4466;SDS011;2246;42.664;23.278;2023-03-05T07:11:46;31.15;;;12.93;;
4466;SDS011;2246;42.664;23.278;2023-03-05T07:14:12;32.88;;;13.27;;
4466;SDS011;2246;42.664;23.278;2023-03-05T07:16:38;28.98;;;12.48;;
4466;SDS011;2246;42.664;23.278;2023-03-05T07:19:05;32.85;;;13.77;;
4466;SDS011;2246;42.664;23.278;2023-03-05T07:21:32;40.13;;;15.53;;
4466;SDS011;2246;42.664;23.278;2023-03-05T07:23:59;35.58;;;13.60;;
4466;SDS011;2246;42.664;23.278;2023-03-05T07:26:26;35.53;;;14.73;;
4466;SDS011;2246;42.664;23.278;2023-03-05T07:28:52;31.40;;;13.85;;
4466;SDS011;2246;42.664;23.278;2023-03-05T07:31:20;40.70;;;14.32;;
4466;SDS011;2246;42.664;23.278;2023-03-05T07:33:49;34.38;;;14.35;;
4466;SDS011;2246;42.664;23.278;2023-03-05T07:36:15;33.85;;;14.15;;
4466;SDS011;2246;42.664;23.278;2023-03-05T07:38:41;33.13;;;13.57;;
4466;SDS011;2246;42.664;23.278;2023-03-05T07:41:09;34.08;;;14.30;;
4466;SDS011;2246;42.664;23.278;2023-03-05T07:43:35;38.95;;;14.65;;
4466;SDS011;2246;42.664;23.278;2023-03-05T07:46:05;38.67;;;15.15;;
4466;SDS011;2246;42.664;23.278;2023-03-05T07:48:31;34.33;;;14.98;;
4466;SDS011;2246;42.664;23.278;2023-03-05T07:51:09;36.25;;;14.43;;
4466;SDS011;2246;42.664;23.278;2023-03-05T07:53:35;53.70;;;16.58;;
4466;SDS011;2246;42.664;23.278;2023-03-05T07:56:02;35.33;;;15.13;;
4466;SDS011;2246;42.664;23.278;2023-03-05T07:58:28;32.45;;;14.38;;
4466;SDS011;2246;42.664;23.278;2023-03-05T08:00:54;38.10;;;16.63;;
4466;SDS011;2246;42.664;23.278;2023-03-05T08:03:21;46.22;;;16.70;;
4466;SDS011;2246;42.664;23.278;2023-03-05T08:05:47;38.80;;;17.02;;
4466;SDS011;2246;42.664;23.278;2023-03-05T08:08:13;38.03;;;16.38;;
4466;SDS011;2246;42.664;23.278;2023-03-05T08:10:40;42.33;;;16.53;;
4466;SDS011;2246;42.664;23.278;2023-03-05T08:13:06;37.85;;;15.80;;
4466;SDS011;2246;42.664;23.278;2023-03-05T08:15:32;36.22;;;14.75;;
4466;SDS011;2246;42.664;23.278;2023-03-05T08:17:59;39.95;;;16.30;;
4466;SDS011;2246;42.664;23.278;2023-03-05T08:20:25;42.88;;;17.30;;
4466;SDS011;2246;42.664;23.278;2023-03-05T08:22:51;37.40;;;16.60;;
4466;SDS011;2246;42.664;23.278;2023-03-05T08:25:17;40.53;;;17.10;;
4466;SDS011;2246;42.664;23.278;2023-03-05T08:27:44;39.20;;;15.30;;
4466;SDS011;2246;42.664;23.278;2023-03-05T08:30:11;39.75;;;16.83;;
4466;SDS011;2246;42.664;23.278;2023-03-05T08:32:37;38.03;;;16.52;;
4466;SDS011;2246;42.664;23.278;2023-03-05T08:35:04;40.33;;;17.75;;
4466;SDS011;2246;42.664;23.278;2023-03-05T08:37:30;43.15;;;16.70;;
4466;SDS011;2246;42.664;23.278;2023-03-05T08:39:56;41.45;;;17.25;;
4466;SDS011;2246;42.664;23.278;2023-03-05T08:42:23;40.67;;;16.20;;
4466;SDS011;2246;42.664;23.278;2023-03-05T08:44:49;30.77;;;14.73;;
4466;SDS011;2246;42.664;23.278;2023-03-05T08:47:15;42.42;;;16.65;;
4466;SDS011;2246;42.664;23.278;2023-03-05T08:49:42;38.88;;;17.77;;
4466;SDS011;2246;42.664;23.278;2023-03-05T08:52:09;37.03;;;16.50;;
4466;SDS011;2246;42.664;23.278;2023-03-05T08:54:35;35.70;;;16.33;;
4466;SDS011;2246;42.664;23.278;2023-03-05T08:57:01;45.33;;;17.40;;
4466;SDS011;2246;42.664;23.278;2023-03-05T08:59:28;36.65;;;15.55;;
4466;SDS011;2246;42.664;23.278;2023-03-05T09:01:54;36.45;;;16.35;;
4466;SDS011;2246;42.664;23.278;2023-03-05T09:04:24;35.83;;;16.33;;
4466;SDS011;2246;42.664;23.278;2023-03-05T09:06:50;40.95;;;17.13;;
4466;SDS011;2246;42.664;23.278;2023-03-05T09:09:16;37.42;;;16.08;;
4466;SDS011;2246;42.664;23.278;2023-03-05T09:11:45;36.20;;;15.73;;
4466;SDS011;2246;42.664;23.278;2023-03-05T09:14:11;36.17;;;15.35;;
4466;SDS011;2246;42.664;23.278;2023-03-05T09:16:37;38.45;;;15.45;;
4466;SDS011;2246;42.664;23.278;2023-03-05T09:19:05;32.03;;;14.33;;
4466;SDS011;2246;42.664;23.278;2023-03-05T09:21:34;34.70;;;14.18;;
4466;SDS011;2246;42.664;23.278;2023-03-05T09:24:00;33.38;;;14.73;;
4466;SDS011;2246;42.664;23.278;2023-03-05T09:26:27;32.70;;;13.77;;
4466;SDS011;2246;42.664;23.278;2023-03-05T09:28:53;31.48;;;13.27;;
4466;SDS011;2246;42.664;23.278;2023-03-05T09:31:19;32.58;;;13.80;;
4466;SDS011;2246;42.664;23.278;2023-03-05T09:33:48;32.72;;;15.05;;
4466;SDS011;2246;42.664;23.278;2023-03-05T09:36:22;34.00;;;13.68;;
4466;SDS011;2246;42.664;23.278;2023-03-05T09:38:48;31.23;;;13.40;;
4466;SDS011;2246;42.664;23.278;2023-03-05T09:51:37;31.83;;;14.02;;
4466;SDS011;2246;42.664;23.278;2023-03-05T09:54:08;30.80;;;14.60;;
4466;SDS011;2246;42.664;23.278;2023-03-05T09:56:35;26.02;;;11.90;;
4466;SDS011;2246;42.664;23.278;2023-03-05T09:59:20;25.63;;;11.52;;
4466;SDS011;2246;42.664;23.278;2023-03-05T10:01:48;30.33;;;13.20;;
4466;SDS011;2246;42.664;23.278;2023-03-05T10:04:27;28.73;;;13.55;;
4466;SDS011;2246;42.664;23.278;2023-03-05T10:07:11;27.48;;;13.15;;
4466;SDS011;2246;42.664;23.278;2023-03-05T10:14:40;24.73;;;12.23;;
4466;SDS011;2246;42.664;23.278;2023-03-05T10:24:43;27.55;;;12.43;;
4466;SDS011;2246;42.664;23.278;2023-03-05T10:27:33;29.67;;;12.25;;
4466;SDS011;2246;42.664;23.278;2023-03-05T10:30:47;27.85;;;12.95;;
4466;SDS011;2246;42.664;23.278;2023-03-05T10:42:43;22.92;;;11.55;;
4466;SDS011;2246;42.664;23.278;2023-03-05T10:45:14;28.65;;;12.13;;
4466;SDS011;2246;42.664;23.278;2023-03-05T10:50:23;28.77;;;10.43;;
4466;SDS011;2246;42.664;23.278;2023-03-05T10:53:04;19.08;;;9.52;;
4466;SDS011;2246;42.664;23.278;2023-03-05T10:55:31;22.67;;;10.27;;
4466;SDS011;2246;42.664;23.278;2023-03-05T10:57:57;21.45;;;10.30;;
4466;SDS011;2246;42.664;23.278;2023-03-05T11:00:25;24.40;;;10.65;;
4466;SDS011;2246;42.664;23.278;2023-03-05T11:13:30;19.77;;;9.98;;
4466;SDS011;2246;42.664;23.278;2023-03-05T11:16:01;24.60;;;10.33;;
4466;SDS011;2246;42.664;23.278;2023-03-05T11:18:28;26.48;;;10.73;;
4466;SDS011;2246;42.664;23.278;2023-03-05T11:23:33;20.63;;;10.23;;
4466;SDS011;2246;42.664;23.278;2023-03-05T11:26:00;25.92;;;10.50;;
4466;SDS011;2246;42.664;23.278;2023-03-05T11:33:32;25.08;;;11.95;;
4466;SDS011;2246;42.664;23.278;2023-03-05T11:38:56;23.23;;;10.75;;
4466;SDS011;2246;42.664;23.278;2023-03-05T11:41:25;22.88;;;11.10;;
4466;SDS011;2246;42.664;23.278;2023-03-05T11:43:52;25.48;;;10.98;;
4466;SDS011;2246;42.664;23.278;2023-03-05T11:46:19;25.00;;;11.83;;
4466;SDS011;2246;42.664;23.278;2023-03-05T11:48:45;25.85;;;11.82;;
4466;SDS011;2246;42.664;23.278;2023-03-05T11:51:16;23.17;;;10.88;;
4466;SDS011;2246;42.664;23.278;2023-03-05T11:53:44;20.02;;;10.77;;
4466;SDS011;2246;42.664;23.278;2023-03-05T12:01:18;28.55;;;10.57;;
4466;SDS011;2246;42.664;23.278;2023-03-05T12:03:44;26.52;;;10.80;;
4466;SDS011;2246;42.664;23.278;2023-03-05T12:08:39;19.80;;;9.90;;
4466;SDS011;2246;42.664;23.278;2023-03-05T12:11:13;23.60;;;10.45;;
4466;SDS011;2246;42.664;23.278;2023-03-05T12:13:41;14.55;;;8.27;;
4466;SDS011;2246;42.664;23.278;2023-03-05T12:16:44;25.90;;;11.02;;
4466;SDS011;2246;42.664;23.278;2023-03-05T12:21:40;20.88;;;11.07;;
4466;SDS011;2246;42.664;23.278;2023-03-05T12:29:36;23.17;;;10.73;;
4466;SDS011;2246;42.664;23.278;2023-03-05T12:32:03;20.90;;;10.33;;
4466;SDS011;2246;42.664;23.278;2023-03-05T12:37:12;21.13;;;10.15;;
4466;SDS011;2246;42.664;23.278;2023-03-05T12:39:45;20.08;;;9.10;;
4466;SDS011;2246;42.664;23.278;2023-03-05T12:47:38;21.42;;;9.65;;
4466;SDS011;2246;42.664;23.278;2023-03-05T12:50:09;26.15;;;10.30;;
4466;SDS011;2246;42.664;23.278;2023-03-05T12:52:51;15.27;;;8.60;;
4466;SDS011;2246;42.664;23.278;2023-03-05T12:55:18;17.60;;;8.98;;
4466;SDS011;2246;42.664;23.278;2023-03-05T12:57:49;21.73;;;9.88;;
4466;SDS011;2246;42.664;23.278;2023-03-05T13:00:21;21.25;;;9.50;;
4466;SDS011;2246;42.664;23.278;2023-03-05T13:02:51;29.48;;;11.95;;
4466;SDS011;2246;42.664;23.278;2023-03-05T13:05:26;27.27;;;11.82;;
4466;SDS011;2246;42.664;23.278;2023-03-05T13:07:53;18.75;;;9.82;;
4466;SDS011;2246;42.664;23.278;2023-03-05T13:10:33;19.45;;;9.13;;
4466;SDS011;2246;42.664;23.278;2023-03-05T13:12:59;21.83;;;9.68;;
4466;SDS011;2246;42.664;23.278;2023-03-05T13:15:26;22.65;;;10.23;;
4466;SDS011;2246;42.664;23.278;2023-03-05T13:20:24;14.95;;;8.00;;
4466;SDS011;2246;42.664;23.278;2023-03-05T13:25:36;16.45;;;8.73;;
4466;SDS011;2246;42.664;23.278;2023-03-05T13:28:03;19.60;;;9.70;;
4466;SDS011;2246;42.664;23.278;2023-03-05T13:30:29;38.15;;;12.55;;
4466;SDS011;2246;42.664;23.278;2023-03-05T13:32:57;22.73;;;10.52;;
4466;SDS011;2246;42.664;23.278;2023-03-05T13:35:26;23.67;;;10.18;;
4466;SDS011;2246;42.664;23.278;2023-03-05T13:37:53;24.05;;;9.93;;
4466;SDS011;2246;42.664;23.278;2023-03-05T13:42:46;22.30;;;11.00;;
4466;SDS011;2246;42.664;23.278;2023-03-05T13:45:23;23.42;;;11.00;;
4466;SDS011;2246;42.664;23.278;2023-03-05T13:47:50;26.80;;;10.57;;
4466;SDS011;2246;42.664;23.278;2023-03-05T13:50:26;21.27;;;9.25;;
4466;SDS011;2246;42.664;23.278;2023-03-05T13:52:53;22.48;;;10.82;;
4466;SDS011;2246;42.664;23.278;2023-03-05T13:55:20;24.95;;;10.43;;
4466;SDS011;2246;42.664;23.278;2023-03-05T13:57:50;19.88;;;10.30;;
4466;SDS011;2246;42.664;23.278;2023-03-05T14:00:30;22.58;;;10.38;;
4466;SDS011;2246;42.664;23.278;2023-03-05T14:03:39;23.73;;;10.45;;
4466;SDS011;2246;42.664;23.278;2023-03-05T14:05:46;23.23;;;11.10;;
4466;SDS011;2246;42.664;23.278;2023-03-05T14:08:20;29.55;;;11.48;;
4466;SDS011;2246;42.664;23.278;2023-03-05T14:10:47;25.67;;;12.23;;
4466;SDS011;2246;42.664;23.278;2023-03-05T14:13:18;22.67;;;11.63;;
4466;SDS011;2246;42.664;23.278;2023-03-05T14:18:30;26.92;;;11.70;;
4466;SDS011;2246;42.664;23.278;2023-03-05T14:23:44;30.65;;;12.30;;
4466;SDS011;2246;42.664;23.278;2023-03-05T14:28:50;37.92;;;15.50;;
4466;SDS011;2246;42.664;23.278;2023-03-05T14:31:17;33.47;;;14.18;;
4466;SDS011;2246;42.664;23.278;2023-03-05T14:33:44;33.70;;;11.82;;
4466;SDS011;2246;42.664;23.278;2023-03-05T14:36:10;29.75;;;11.90;;
4466;SDS011;2246;42.664;23.278;2023-03-05T14:38:38;46.08;;;19.02;;
4466;SDS011;2246;42.664;23.278;2023-03-05T14:41:21;25.65;;;11.32;;
4466;SDS011;2246;42.664;23.278;2023-03-05T14:43:47;27.05;;;11.15;;
4466;SDS011;2246;42.664;23.278;2023-03-05T14:46:13;23.90;;;11.20;;
4466;SDS011;2246;42.664;23.278;2023-03-05T14:48:39;29.48;;;11.32;;
4466;SDS011;2246;42.664;23.278;2023-03-05T14:51:05;24.75;;;10.52;;
4466;SDS011;2246;42.664;23.278;2023-03-05T14:53:34;20.00;;;10.07;;
4466;SDS011;2246;42.664;23.278;2023-03-05T14:56:03;28.48;;;12.55;;
4466;SDS011;2246;42.664;23.278;2023-03-05T14:58:31;24.73;;;11.25;;
4466;SDS011;2246;42.664;23.278;2023-03-05T15:00:59;23.85;;;11.05;;
4466;SDS011;2246;42.664;23.278;2023-03-05T15:03:25;27.10;;;11.80;;
4466;SDS011;2246;42.664;23.278;2023-03-05T15:05:53;27.15;;;11.77;;
4466;SDS011;2246;42.664;23.278;2023-03-05T15:08:21;24.45;;;11.27;;
4466;SDS011;2246;42.664;23.278;2023-03-05T15:13:13;29.20;;;12.05;;
4466;SDS011;2246;42.664;23.278;2023-03-05T15:15:40;27.17;;;12.13;;
4466;SDS011;2246;42.664;23.278;2023-03-05T15:18:09;26.15;;;12.07;;
4466;SDS011;2246;42.664;23.278;2023-03-05T15:20:35;27.33;;;12.10;;
4466;SDS011;2246;42.664;23.278;2023-03-05T15:23:03;27.90;;;12.43;;
4466;SDS011;2246;42.664;23.278;2023-03-05T15:25:29;24.35;;;10.70;;
4466;SDS011;2246;42.664;23.278;2023-03-05T15:27:55;27.50;;;12.27;;
4466;SDS011;2246;42.664;23.278;2023-03-05T15:30:26;27.42;;;11.57;;
4466;SDS011;2246;42.664;23.278;2023-03-05T15:32:53;31.08;;;12.02;;
4466;SDS011;2246;42.664;23.278;2023-03-05T15:35:19;24.00;;;12.03;;
4466;SDS011;2246;42.664;23.278;2023-03-05T15:37:45;24.75;;;12.13;;
4466;SDS011;2246;42.664;23.278;2023-03-05T15:40:12;29.65;;;12.05;;
4466;SDS011;2246;42.664;23.278;2023-03-05T15:42:38;23.20;;;11.63;;
4466;SDS011;2246;42.664;23.278;2023-03-05T15:45:04;24.80;;;10.48;;
4466;SDS011;2246;42.664;23.278;2023-03-05T15:47:31;29.70;;;11.27;;
4466;SDS011;2246;42.664;23.278;2023-03-05T15:49:57;29.10;;;11.68;;
4466;SDS011;2246;42.664;23.278;2023-03-05T15:52:23;25.80;;;12.27;;
4466;SDS011;2246;42.664;23.278;2023-03-05T15:54:49;26.92;;;12.13;;
4466;SDS011;2246;42.664;23.278;2023-03-05T15:57:15;25.20;;;12.35;;
4466;SDS011;2246;42.664;23.278;2023-03-05T15:59:41;26.83;;;11.70;;
4466;SDS011;2246;42.664;23.278;2023-03-05T16:02:08;28.77;;;12.27;;
4466;SDS011;2246;42.664;23.278;2023-03-05T16:04:34;33.33;;;14.27;;
4466;SDS011;2246;42.664;23.278;2023-03-05T16:07:00;30.45;;;12.90;;
4466;SDS011;2246;42.664;23.278;2023-03-05T16:09:38;21.80;;;10.63;;
4466;SDS011;2246;42.664;23.278;2023-03-05T16:12:06;25.05;;;11.32;;
4466;SDS011;2246;42.664;23.278;2023-03-05T16:14:33;27.10;;;12.07;;
4466;SDS011;2246;42.664;23.278;2023-03-05T16:16:59;22.45;;;11.02;;
4466;SDS011;2246;42.664;23.278;2023-03-05T16:19:27;23.90;;;10.73;;
4466;SDS011;2246;42.664;23.278;2023-03-05T16:21:54;36.35;;;12.07;;
4466;SDS011;2246;42.664;23.278;2023-03-05T16:24:20;23.92;;;11.23;;
4466;SDS011;2246;42.664;23.278;2023-03-05T16:26:47;19.98;;;10.13;;
4466;SDS011;2246;42.664;23.278;2023-03-05T16:29:13;27.77;;;11.60;;
4466;SDS011;2246;42.664;23.278;2023-03-05T16:31:39;25.90;;;11.68;;